Perseverance — WDD5594 — position and weather

sailwx.info

Track history (hours):
 
Tides and Currents Weather Stations Pressure Air Temp Water Temp Dewpoint Dewpoint Depression Visibility Wind Speed Wind Dir Waves Ship Positions

Perseverance

Owner: Cooper, Mark E, Toledo, OR. More information available from US FCC via Universal Licensing System and Coast Guard Vessel Documentation Center.

Last reported at 2016-Sep-26 02:33 UTC. Time now 2016-Sep-26 03:38 UTC.
Position N 46°11' W 124°43'.

Type: Fishing. MMSI: 367618000.

Date/timePositionNaut miles runAvg speedWind from/ knotsBaromVisibWave heightAir tempDewpointWater temp
2016-Sep-26 02:33N 46°11' W 124°43'3 3.0
2016-Sep-26 01:33N 46°13' W 124°39'3 2.7
2016-Sep-26 00:33N 46°14' W 124°35'5 1.8
2016-Sep-25 21:33N 46°14' W 124°28'3 0.9
2016-Sep-25 17:33N 46°17' W 124°24'2 2.0
2016-Sep-25 16:33N 46°16' W 124°27'8 7.7
2016-Sep-25 15:33N 46°15' W 124°38'10 9.5
2016-Sep-25 14:33N 46°06' W 124°42'2010.0
2016-Sep-25 12:33N 45°46' W 124°46'9 9.0
2016-Sep-25 11:33N 45°38' W 124°39'9 9.2
2016-Sep-25 10:33N 45°32' W 124°30'9 9.3
2016-Sep-25 09:33N 45°22' W 124°28'18 8.9
2016-Sep-25 07:34N 45°05' W 124°33'7 2.4
2016-Sep-25 04:34N 44°58' W 124°33'34 8.4
2016-Sep-25 00:33N 44°26' W 124°48'4 2.2
2016-Sep-24 22:33N 44°22' W 124°49'1 1.2
2016-Sep-24 21:24N 44°23' W 124°49'2 1.0
2016-Sep-24 19:18N 44°21' W 124°51'1 0.8
2016-Sep-24 18:10N 44°22' W 124°50'6 1.5
2016-Sep-24 14:30N 44°27' W 124°47'10 4.9
2016-Sep-24 12:30N 44°30' W 124°34'18 7.5
2016-Sep-24 10:05N 44°35' W 124°10'  
2016-Sep-17 09:29N 42°10' W 124°39'3 2.9
2016-Sep-17 08:33N 42°08' W 124°37'9 3.0
2016-Sep-17 05:33N 42°16' W 124°43'4 3.7
2016-Sep-17 04:33N 42°19' W 124°46'9 2.3
2016-Sep-17 00:33N 42°27' W 124°51'13 1.9
2016-Sep-16 17:33N 42°17' W 124°40'3 1.5
2016-Sep-16 15:33N 42°19' W 124°43'7 2.2
2016-Sep-16 12:33N 42°24' W 124°48'3 0.9
2016-Sep-16 09:33N 42°23' W 124°45'7 3.3
2016-Sep-16 07:33N 42°17' W 124°40'4 0.9
2016-Sep-16 03:33N 42°20' W 124°43'  
Track history (hours):
 
Tides and Currents Weather Stations Pressure Air Temp Water Temp Dewpoint Dewpoint Depression Visibility Wind Speed Wind Dir Waves Ship Positions

Perseverance

Owner: Cooper, Mark E, Toledo, OR. More information available from US FCC via Universal Licensing System and Coast Guard Vessel Documentation Center.

Last reported at 2016-Sep-26 02:33 UTC. Time now 2016-Sep-26 03:38 UTC.
Position N 46°11' W 124°43'.

Type: Fishing. MMSI: 367618000.

Date/timePositionNaut miles runAvg speedWind from/ knotsBaromVisibWave heightAir tempDewpointWater temp
2016-Sep-26 02:33N 46°11' W 124°43'3 3.0
2016-Sep-26 01:33N 46°13' W 124°39'3 2.7
2016-Sep-26 00:33N 46°14' W 124°35'5 1.8
2016-Sep-25 21:33N 46°14' W 124°28'3 0.9
2016-Sep-25 17:33N 46°17' W 124°24'2 2.0
2016-Sep-25 16:33N 46°16' W 124°27'8 7.7
2016-Sep-25 15:33N 46°15' W 124°38'10 9.5
2016-Sep-25 14:33N 46°06' W 124°42'2010.0
2016-Sep-25 12:33N 45°46' W 124°46'9 9.0
2016-Sep-25 11:33N 45°38' W 124°39'9 9.2
2016-Sep-25 10:33N 45°32' W 124°30'9 9.3
2016-Sep-25 09:33N 45°22' W 124°28'18 8.9
2016-Sep-25 07:34N 45°05' W 124°33'7 2.4
2016-Sep-25 04:34N 44°58' W 124°33'34 8.4
2016-Sep-25 00:33N 44°26' W 124°48'4 2.2
2016-Sep-24 22:33N 44°22' W 124°49'1 1.2
2016-Sep-24 21:24N 44°23' W 124°49'2 1.0
2016-Sep-24 19:18N 44°21' W 124°51'1 0.8
2016-Sep-24 18:10N 44°22' W 124°50'6 1.5
2016-Sep-24 14:30N 44°27' W 124°47'10 4.9
2016-Sep-24 12:30N 44°30' W 124°34'18 7.5
2016-Sep-24 10:05N 44°35' W 124°10'  
2016-Sep-17 09:29N 42°10' W 124°39'3 2.9
2016-Sep-17 08:33N 42°08' W 124°37'9 3.0
2016-Sep-17 05:33N 42°16' W 124°43'4 3.7
2016-Sep-17 04:33N 42°19' W 124°46'9 2.3
2016-Sep-17 00:33N 42°27' W 124°51'13 1.9
2016-Sep-16 17:33N 42°17' W 124°40'3 1.5
2016-Sep-16 15:33N 42°19' W 124°43'7 2.2
2016-Sep-16 12:33N 42°24' W 124°48'3 0.9
2016-Sep-16 09:33N 42°23' W 124°45'7 3.3
2016-Sep-16 07:33N 42°17' W 124°40'4 0.9
2016-Sep-16 03:33N 42°20' W 124°43'  

Dump ship's entire track history